Terminal Aerodrome Forecast
Issued by NWS Tampa Bay Area, FL

Home | Current Version | Previous Version | Text Only | Print | Product List | Glossary On
Versions: 1 2 3 4 5 6 7 8 9 10 11 12 13 14 15 16 17 18 19 20 21 22 23 24 25 26 27 28
000
FTUS42 KTBW 052330
TAFTPA
TAF
KTPA 052330Z 0600/0624 08011KT P6SM FEW050 BKN250
     FM060300 07007KT P6SM SCT040 BKN250
     FM061700 33005KT P6SM VCTS FEW025CB SCT250
     FM062300 31009KT P6SM SCT030 SCT250=

USA.gov is the U.S. government's official web portal to all federal, state and local government web resources and services.